sensor_id;sensor_type;location;lat;lon;timestamp;temperature;humidity
24091;DHT22;12272;52.426;17.100;2023-04-03T00:04:57;0.80;99.90
24091;DHT22;12272;52.426;17.100;2023-04-03T00:10:00;0.70;99.90
24091;DHT22;12272;52.426;17.100;2023-04-03T00:15:03;0.50;99.90
24091;DHT22;12272;52.426;17.100;2023-04-03T00:20:06;0.50;99.90
24091;DHT22;12272;52.426;17.100;2023-04-03T00:25:09;0.50;99.90
24091;DHT22;12272;52.426;17.100;2023-04-03T00:30:15;0.40;99.90
24091;DHT22;12272;52.426;17.100;2023-04-03T00:35:18;0.40;99.90
24091;DHT22;12272;52.426;17.100;2023-04-03T00:40:24;0.50;99.90
24091;DHT22;12272;52.426;17.100;2023-04-03T00:45:41;0.50;99.90
24091;DHT22;12272;52.426;17.100;2023-04-03T00:50:45;0.50;99.90
24091;DHT22;12272;52.426;17.100;2023-04-03T00:55:49;0.70;99.90
24091;DHT22;12272;52.426;17.100;2023-04-03T01:00:55;0.60;99.90
24091;DHT22;12272;52.426;17.100;2023-04-03T01:06:00;0.60;99.90
24091;DHT22;12272;52.426;17.100;2023-04-03T01:11:03;0.50;99.90
24091;DHT22;12272;52.426;17.100;2023-04-03T01:16:06;0.70;99.90
24091;DHT22;12272;52.426;17.100;2023-04-03T01:26:19;0.20;99.90
24091;DHT22;12272;52.426;17.100;2023-04-03T01:36:38;0.20;99.90
24091;DHT22;12272;52.426;17.100;2023-04-03T01:41:41;0.30;99.90
24091;DHT22;12272;52.426;17.100;2023-04-03T01:46:52;0.20;99.90
24091;DHT22;12272;52.426;17.100;2023-04-03T01:51:57;0.20;99.90
24091;DHT22;12272;52.426;17.100;2023-04-03T01:56:59;0.50;99.90
24091;DHT22;12272;52.426;17.100;2023-04-03T02:02:02;0.30;99.90
24091;DHT22;12272;52.426;17.100;2023-04-03T02:07:05;0.20;99.90
24091;DHT22;12272;52.426;17.100;2023-04-03T02:12:08;0.20;99.90
24091;DHT22;12272;52.426;17.100;2023-04-03T02:17:10;0.20;99.90
24091;DHT22;12272;52.426;17.100;2023-04-03T02:22:13;0.30;99.90
24091;DHT22;12272;52.426;17.100;2023-04-03T02:27:16;0.10;99.90
24091;DHT22;12272;52.426;17.100;2023-04-03T02:32:18;0.30;99.90
24091;DHT22;12272;52.426;17.100;2023-04-03T02:37:22;0.40;99.90
24091;DHT22;12272;52.426;17.100;2023-04-03T02:42:27;0.40;99.90
24091;DHT22;12272;52.426;17.100;2023-04-03T02:47:30;0.50;99.90
24091;DHT22;12272;52.426;17.100;2023-04-03T02:52:32;0.60;99.90
24091;DHT22;12272;52.426;17.100;2023-04-03T02:57:35;0.60;99.90
24091;DHT22;12272;52.426;17.100;2023-04-03T03:02:38;0.50;99.90
24091;DHT22;12272;52.426;17.100;2023-04-03T03:07:42;0.50;99.90
24091;DHT22;12272;52.426;17.100;2023-04-03T03:12:44;0.40;99.90
24091;DHT22;12272;52.426;17.100;2023-04-03T03:17:47;0.40;99.90
24091;DHT22;12272;52.426;17.100;2023-04-03T03:22:50;0.50;99.90
24091;DHT22;12272;52.426;17.100;2023-04-03T03:27:52;0.40;99.90
24091;DHT22;12272;52.426;17.100;2023-04-03T03:32:56;0.60;99.90
24091;DHT22;12272;52.426;17.100;2023-04-03T03:37:59;0.50;99.90
24091;DHT22;12272;52.426;17.100;2023-04-03T03:43:02;0.80;99.90
24091;DHT22;12272;52.426;17.100;2023-04-03T03:48:05;0.90;99.90
24091;DHT22;12272;52.426;17.100;2023-04-03T03:53:08;0.50;99.90
24091;DHT22;12272;52.426;17.100;2023-04-03T03:58:11;0.60;99.90
24091;DHT22;12272;52.426;17.100;2023-04-03T04:03:14;0.40;99.90
24091;DHT22;12272;52.426;17.100;2023-04-03T04:08:19;0.40;99.90
24091;DHT22;12272;52.426;17.100;2023-04-03T04:13:22;0.50;99.90
24091;DHT22;12272;52.426;17.100;2023-04-03T04:18:25;0.50;99.90
24091;DHT22;12272;52.426;17.100;2023-04-03T04:23:28;0.60;99.90
24091;DHT22;12272;52.426;17.100;2023-04-03T04:28:33;0.70;99.90
24091;DHT22;12272;52.426;17.100;2023-04-03T04:33:38;1.00;99.90
24091;DHT22;12272;52.426;17.100;2023-04-03T04:38:49;0.70;99.90
24091;DHT22;12272;52.426;17.100;2023-04-03T04:43:58;0.70;99.90
24091;DHT22;12272;52.426;17.100;2023-04-03T04:49:07;1.00;99.90
24091;DHT22;12272;52.426;17.100;2023-04-03T04:54:10;2.70;99.90
24091;DHT22;12272;52.426;17.100;2023-04-03T04:59:13;2.50;99.90
24091;DHT22;12272;52.426;17.100;2023-04-03T05:04:17;2.00;99.90
24091;DHT22;12272;52.426;17.100;2023-04-03T05:09:24;1.90;99.90
24091;DHT22;12272;52.426;17.100;2023-04-03T05:14:27;2.00;99.90
24091;DHT22;12272;52.426;17.100;2023-04-03T05:19:35;1.70;99.90
24091;DHT22;12272;52.426;17.100;2023-04-03T05:24:39;1.90;99.90
24091;DHT22;12272;52.426;17.100;2023-04-03T05:29:43;1.60;99.90
24091;DHT22;12272;52.426;17.100;2023-04-03T05:34:51;1.70;99.90
24091;DHT22;12272;52.426;17.100;2023-04-03T05:39:55;1.50;99.90
24091;DHT22;12272;52.426;17.100;2023-04-03T05:44:57;1.30;99.90
24091;DHT22;12272;52.426;17.100;2023-04-03T05:50:00;1.30;99.90
24091;DHT22;12272;52.426;17.100;2023-04-03T05:55:04;1.30;99.90
24091;DHT22;12272;52.426;17.100;2023-04-03T06:00:12;1.90;99.90
24091;DHT22;12272;52.426;17.100;2023-04-03T06:05:21;2.20;99.90
24091;DHT22;12272;52.426;17.100;2023-04-03T06:10:24;2.20;99.90
24091;DHT22;12272;52.426;17.100;2023-04-03T06:15:27;2.40;99.90
24091;DHT22;12272;52.426;17.100;2023-04-03T06:20:30;2.30;99.50
24091;DHT22;12272;52.426;17.100;2023-04-03T06:25:33;2.30;98.90
24091;DHT22;12272;52.426;17.100;2023-04-03T06:30:37;2.20;98.50
24091;DHT22;12272;52.426;17.100;2023-04-03T06:35:40;2.40;99.80
24091;DHT22;12272;52.426;17.100;2023-04-03T06:40:43;3.10;99.90
24091;DHT22;12272;52.426;17.100;2023-04-03T06:45:46;3.10;95.70
24091;DHT22;12272;52.426;17.100;2023-04-03T06:50:48;3.00;95.00
24091;DHT22;12272;52.426;17.100;2023-04-03T06:55:51;2.80;94.50
24091;DHT22;12272;52.426;17.100;2023-04-03T07:00:54;2.80;94.60
24091;DHT22;12272;52.426;17.100;2023-04-03T07:05:58;3.10;94.70
24091;DHT22;12272;52.426;17.100;2023-04-03T07:11:01;3.00;94.20
24091;DHT22;12272;52.426;17.100;2023-04-03T07:16:04;3.40;95.00
24091;DHT22;12272;52.426;17.100;2023-04-03T07:21:08;3.40;96.80
24091;DHT22;12272;52.426;17.100;2023-04-03T07:26:10;4.10;92.90
24091;DHT22;12272;52.426;17.100;2023-04-03T07:31:13;4.20;93.50
24091;DHT22;12272;52.426;17.100;2023-04-03T07:36:20;4.10;89.00
24091;DHT22;12272;52.426;17.100;2023-04-03T07:41:23;3.90;87.90
24091;DHT22;12272;52.426;17.100;2023-04-03T07:46:25;4.00;90.10
24091;DHT22;12272;52.426;17.100;2023-04-03T07:51:28;3.90;85.40
24091;DHT22;12272;52.426;17.100;2023-04-03T07:56:32;3.40;87.90
24091;DHT22;12272;52.426;17.100;2023-04-03T08:01:34;4.00;92.40
24091;DHT22;12272;52.426;17.100;2023-04-03T08:06:37;4.50;85.20
24091;DHT22;12272;52.426;17.100;2023-04-03T08:11:48;4.00;80.60
24091;DHT22;12272;52.426;17.100;2023-04-03T08:16:51;4.20;89.10
24091;DHT22;12272;52.426;17.100;2023-04-03T08:21:54;4.20;79.70
24091;DHT22;12272;52.426;17.100;2023-04-03T08:26:58;4.90;69.10
24091;DHT22;12272;52.426;17.100;2023-04-03T08:32:00;5.30;59.10
24091;DHT22;12272;52.426;17.100;2023-04-03T08:37:03;5.60;53.60
24091;DHT22;12272;52.426;17.100;2023-04-03T08:42:19;6.00;56.70
24091;DHT22;12272;52.426;17.100;2023-04-03T08:53:01;4.90;39.90
24091;DHT22;12272;52.426;17.100;2023-04-03T08:58:16;4.30;39.10
24091;DHT22;12272;52.426;17.100;2023-04-03T09:03:20;4.10;44.00
24091;DHT22;12272;52.426;17.100;2023-04-03T09:08:37;3.90;43.30
24091;DHT22;12272;52.426;17.100;2023-04-03T09:24:26;5.10;53.30
24091;DHT22;12272;52.426;17.100;2023-04-03T09:29:29;5.10;46.60
24091;DHT22;12272;52.426;17.100;2023-04-03T09:34:36;4.80;45.20
24091;DHT22;12272;52.426;17.100;2023-04-03T09:39:53;4.50;43.30
24091;DHT22;12272;52.426;17.100;2023-04-03T09:45:01;5.20;48.20
24091;DHT22;12272;52.426;17.100;2023-04-03T10:00:25;5.10;42.20
24091;DHT22;12272;52.426;17.100;2023-04-03T10:05:35;5.20;40.00
24091;DHT22;12272;52.426;17.100;2023-04-03T10:10:38;5.30;36.50
24091;DHT22;12272;52.426;17.100;2023-04-03T10:15:44;5.40;33.60
24091;DHT22;12272;52.426;17.100;2023-04-03T10:20:49;6.10;46.30
24091;DHT22;12272;52.426;17.100;2023-04-03T10:31:42;7.10;34.40
24091;DHT22;12272;52.426;17.100;2023-04-03T10:53:11;7.70;47.70
24091;DHT22;12272;52.426;17.100;2023-04-03T10:58:33;8.20;44.80
24091;DHT22;12272;52.426;17.100;2023-04-03T11:03:43;7.10;46.10
24091;DHT22;12272;52.426;17.100;2023-04-03T11:08:55;7.00;48.30
24091;DHT22;12272;52.426;17.100;2023-04-03T11:14:13;6.90;48.50
24091;DHT22;12272;52.426;17.100;2023-04-03T11:19:21;6.90;45.20
24091;DHT22;12272;52.426;17.100;2023-04-03T11:24:29;6.70;42.90
24091;DHT22;12272;52.426;17.100;2023-04-03T11:29:36;6.90;44.20
24091;DHT22;12272;52.426;17.100;2023-04-03T11:34:46;7.50;43.80
24091;DHT22;12272;52.426;17.100;2023-04-03T11:39:57;7.80;44.80
24091;DHT22;12272;52.426;17.100;2023-04-03T12:16:33;7.60;38.90
24091;DHT22;12272;52.426;17.100;2023-04-03T12:48:59;7.80;39.90
24091;DHT22;12272;52.426;17.100;2023-04-03T12:54:12;7.10;38.70
24091;DHT22;12272;52.426;17.100;2023-04-03T12:59:27;7.10;43.50
24091;DHT22;12272;52.426;17.100;2023-04-03T13:04:31;7.80;47.50
24091;DHT22;12272;52.426;17.100;2023-04-03T13:09:35;7.40;43.20
24091;DHT22;12272;52.426;17.100;2023-04-03T13:14:37;7.00;42.90
24091;DHT22;12272;52.426;17.100;2023-04-03T13:19:40;7.40;42.70
24091;DHT22;12272;52.426;17.100;2023-04-03T13:24:46;7.70;44.30
24091;DHT22;12272;52.426;17.100;2023-04-03T13:29:54;7.40;42.10
24091;DHT22;12272;52.426;17.100;2023-04-03T13:35:23;7.60;43.10
24091;DHT22;12272;52.426;17.100;2023-04-03T13:40:26;7.70;41.80
24091;DHT22;12272;52.426;17.100;2023-04-03T13:45:34;7.30;41.40
24091;DHT22;12272;52.426;17.100;2023-04-03T13:50:56;6.80;40.80
24091;DHT22;12272;52.426;17.100;2023-04-03T13:56:17;6.50;40.60
24091;DHT22;12272;52.426;17.100;2023-04-03T14:01:22;6.00;41.60
24091;DHT22;12272;52.426;17.100;2023-04-03T14:06:25;6.00;41.70
24091;DHT22;12272;52.426;17.100;2023-04-03T14:11:29;6.50;40.10
24091;DHT22;12272;52.426;17.100;2023-04-03T14:16:38;6.70;37.90
24091;DHT22;12272;52.426;17.100;2023-04-03T14:21:41;6.00;37.70
24091;DHT22;12272;52.426;17.100;2023-04-03T14:26:43;6.10;41.90
24091;DHT22;12272;52.426;17.100;2023-04-03T14:31:47;6.00;36.10
24091;DHT22;12272;52.426;17.100;2023-04-03T14:36:53;6.50;38.00
24091;DHT22;12272;52.426;17.100;2023-04-03T14:41:56;5.90;36.40
24091;DHT22;12272;52.426;17.100;2023-04-03T14:46:59;5.50;41.30
24091;DHT22;12272;52.426;17.100;2023-04-03T14:52:02;5.30;44.10
24091;DHT22;12272;52.426;17.100;2023-04-03T14:57:09;5.30;44.40
24091;DHT22;12272;52.426;17.100;2023-04-03T15:07:36;4.80;33.40
24091;DHT22;12272;52.426;17.100;2023-04-03T15:12:39;4.70;25.30
24091;DHT22;12272;52.426;17.100;2023-04-03T15:17:42;5.10;27.10
24091;DHT22;12272;52.426;17.100;2023-04-03T15:22:45;5.40;27.20
24091;DHT22;12272;52.426;17.100;2023-04-03T15:27:48;5.20;26.50
24091;DHT22;12272;52.426;17.100;2023-04-03T15:32:50;5.30;26.80
24091;DHT22;12272;52.426;17.100;2023-04-03T15:37:53;5.50;25.20
24091;DHT22;12272;52.426;17.100;2023-04-03T15:42:56;5.60;27.20
24091;DHT22;12272;52.426;17.100;2023-04-03T15:47:59;5.50;24.70
24091;DHT22;12272;52.426;17.100;2023-04-03T15:53:02;5.20;26.80
24091;DHT22;12272;52.426;17.100;2023-04-03T15:58:05;4.90;27.80
24091;DHT22;12272;52.426;17.100;2023-04-03T16:03:14;5.00;28.40
24091;DHT22;12272;52.426;17.100;2023-04-03T16:08:18;5.10;29.00
24091;DHT22;12272;52.426;17.100;2023-04-03T16:13:21;5.10;27.50
24091;DHT22;12272;52.426;17.100;2023-04-03T16:18:23;5.00;27.90
24091;DHT22;12272;52.426;17.100;2023-04-03T16:23:26;4.70;27.00
24091;DHT22;12272;52.426;17.100;2023-04-03T16:28:29;4.90;37.00
24091;DHT22;12272;52.426;17.100;2023-04-03T16:33:31;4.90;27.50
24091;DHT22;12272;52.426;17.100;2023-04-03T16:38:34;5.00;30.00
24091;DHT22;12272;52.426;17.100;2023-04-03T16:43:37;4.90;28.50
24091;DHT22;12272;52.426;17.100;2023-04-03T16:48:40;4.90;26.90
24091;DHT22;12272;52.426;17.100;2023-04-03T16:53:42;5.10;28.60
24091;DHT22;12272;52.426;17.100;2023-04-03T16:58:45;4.40;28.70
24091;DHT22;12272;52.426;17.100;2023-04-03T17:03:48;4.00;30.50
24091;DHT22;12272;52.426;17.100;2023-04-03T17:08:52;3.80;31.00
24091;DHT22;12272;52.426;17.100;2023-04-03T17:14:03;3.70;46.20
24091;DHT22;12272;52.426;17.100;2023-04-03T17:19:06;3.60;37.40
24091;DHT22;12272;52.426;17.100;2023-04-03T17:24:10;3.80;47.00
24091;DHT22;12272;52.426;17.100;2023-04-03T17:29:14;4.00;38.80
24091;DHT22;12272;52.426;17.100;2023-04-03T17:34:17;4.10;39.70
24091;DHT22;12272;52.426;17.100;2023-04-03T17:39:20;4.20;39.50
24091;DHT22;12272;52.426;17.100;2023-04-03T17:44:23;4.30;40.20
24091;DHT22;12272;52.426;17.100;2023-04-03T17:49:25;4.40;42.10
24091;DHT22;12272;52.426;17.100;2023-04-03T17:54:28;4.40;43.90
24091;DHT22;12272;52.426;17.100;2023-04-03T17:59:31;4.20;41.40
24091;DHT22;12272;52.426;17.100;2023-04-03T18:04:33;4.10;45.60
24091;DHT22;12272;52.426;17.100;2023-04-03T18:09:37;4.20;45.80
24091;DHT22;12272;52.426;17.100;2023-04-03T18:14:43;4.20;47.20
24091;DHT22;12272;52.426;17.100;2023-04-03T18:19:45;4.20;48.70
24091;DHT22;12272;52.426;17.100;2023-04-03T18:24:50;4.20;48.90
24091;DHT22;12272;52.426;17.100;2023-04-03T18:30:00;4.10;49.70
24091;DHT22;12272;52.426;17.100;2023-04-03T18:35:05;4.00;48.20
24091;DHT22;12272;52.426;17.100;2023-04-03T18:40:08;3.90;49.50
24091;DHT22;12272;52.426;17.100;2023-04-03T18:45:12;3.80;50.60
24091;DHT22;12272;52.426;17.100;2023-04-03T18:50:21;3.70;51.60
24091;DHT22;12272;52.426;17.100;2023-04-03T18:55:24;3.70;49.80
24091;DHT22;12272;52.426;17.100;2023-04-03T19:00:26;3.50;52.30
24091;DHT22;12272;52.426;17.100;2023-04-03T19:05:30;3.20;50.10
24091;DHT22;12272;52.426;17.100;2023-04-03T19:10:32;3.00;48.40
24091;DHT22;12272;52.426;17.100;2023-04-03T19:15:35;2.80;48.10
24091;DHT22;12272;52.426;17.100;2023-04-03T19:20:37;2.00;53.60
24091;DHT22;12272;52.426;17.100;2023-04-03T19:25:40;2.00;73.20
24091;DHT22;12272;52.426;17.100;2023-04-03T19:30:43;1.80;81.20
24091;DHT22;12272;52.426;17.100;2023-04-03T19:35:49;1.70;63.00
24091;DHT22;12272;52.426;17.100;2023-04-03T19:40:52;1.70;68.80
24091;DHT22;12272;52.426;17.100;2023-04-03T19:45:54;1.70;75.20
24091;DHT22;12272;52.426;17.100;2023-04-03T19:50:57;1.70;77.50
24091;DHT22;12272;52.426;17.100;2023-04-03T19:56:00;1.60;80.30
24091;DHT22;12272;52.426;17.100;2023-04-03T20:01:02;1.40;87.80
24091;DHT22;12272;52.426;17.100;2023-04-03T20:06:05;1.10;91.80
24091;DHT22;12272;52.426;17.100;2023-04-03T20:11:07;1.10;99.90
24091;DHT22;12272;52.426;17.100;2023-04-03T20:16:10;0.80;99.90
24091;DHT22;12272;52.426;17.100;2023-04-03T20:21:13;0.60;99.90
24091;DHT22;12272;52.426;17.100;2023-04-03T20:26:21;0.30;99.90
24091;DHT22;12272;52.426;17.100;2023-04-03T20:31:26;0.40;99.90
24091;DHT22;12272;52.426;17.100;2023-04-03T20:36:29;0.80;99.90
24091;DHT22;12272;52.426;17.100;2023-04-03T20:41:33;1.00;99.90
24091;DHT22;12272;52.426;17.100;2023-04-03T20:46:38;0.60;99.90
24091;DHT22;12272;52.426;17.100;2023-04-03T20:51:54;1.00;99.90
24091;DHT22;12272;52.426;17.100;2023-04-03T20:56:57;1.60;99.90
24091;DHT22;12272;52.426;17.100;2023-04-03T21:02:00;1.70;99.90
24091;DHT22;12272;52.426;17.100;2023-04-03T21:23:56;2.70;99.90
24091;DHT22;12272;52.426;17.100;2023-04-03T21:28:59;3.10;99.90
24091;DHT22;12272;52.426;17.100;2023-04-03T21:34:02;3.60;99.90
24091;DHT22;12272;52.426;17.100;2023-04-03T21:39:04;3.00;99.40
24091;DHT22;12272;52.426;17.100;2023-04-03T21:44:07;2.60;98.10
24091;DHT22;12272;52.426;17.100;2023-04-03T21:49:09;2.60;99.90
24091;DHT22;12272;52.426;17.100;2023-04-03T21:54:13;2.20;97.90
24091;DHT22;12272;52.426;17.100;2023-04-03T21:59:16;1.90;98.80
24091;DHT22;12272;52.426;17.100;2023-04-03T22:04:19;1.70;98.10
24091;DHT22;12272;52.426;17.100;2023-04-03T22:14:54;1.20;98.30
24091;DHT22;12272;52.426;17.100;2023-04-03T22:19:57;1.20;99.20
24091;DHT22;12272;52.426;17.100;2023-04-03T22:24:59;1.30;99.90
24091;DHT22;12272;52.426;17.100;2023-04-03T22:30:03;1.50;98.60
24091;DHT22;12272;52.426;17.100;2023-04-03T22:35:06;1.10;99.90
24091;DHT22;12272;52.426;17.100;2023-04-03T22:40:09;1.40;99.90
24091;DHT22;12272;52.426;17.100;2023-04-03T22:45:12;1.30;99.00
24091;DHT22;12272;52.426;17.100;2023-04-03T22:50:14;1.40;98.70
24091;DHT22;12272;52.426;17.100;2023-04-03T22:55:17;1.30;99.00
24091;DHT22;12272;52.426;17.100;2023-04-03T23:00:21;1.00;98.60
24091;DHT22;12272;52.426;17.100;2023-04-03T23:05:24;1.00;98.90
24091;DHT22;12272;52.426;17.100;2023-04-03T23:10:26;0.90;98.80
24091;DHT22;12272;52.426;17.100;2023-04-03T23:15:29;1.20;98.90
24091;DHT22;12272;52.426;17.100;2023-04-03T23:20:31;1.10;99.90
24091;DHT22;12272;52.426;17.100;2023-04-03T23:25:34;1.30;99.90
24091;DHT22;12272;52.426;17.100;2023-04-03T23:30:36;1.10;99.80
24091;DHT22;12272;52.426;17.100;2023-04-03T23:35:44;1.30;99.90
24091;DHT22;12272;52.426;17.100;2023-04-03T23:40:49;1.50;99.90
24091;DHT22;12272;52.426;17.100;2023-04-03T23:45:52;1.60;99.90
24091;DHT22;12272;52.426;17.100;2023-04-03T23:50:55;1.40;99.90
24091;DHT22;12272;52.426;17.100;2023-04-03T23:55:58;1.50;99.90
